sensor_id;sensor_type;location;lat;lon;timestamp;pressure;altitude;pressure_sealevel;temperature;humidity
45327;BME280;31062;49.678;24.560;2023-03-11T00:02:08;95924.66;;;9.71;61.11
45327;BME280;31062;49.678;24.560;2023-03-11T00:04:54;95913.22;;;9.63;61.38
45327;BME280;31062;49.678;24.560;2023-03-11T00:07:40;95896.81;;;9.67;61.23
45327;BME280;31062;49.678;24.560;2023-03-11T00:10:29;95897.50;;;9.67;61.42
45327;BME280;31062;49.678;24.560;2023-03-11T00:13:15;95886.28;;;9.63;61.35
45327;BME280;31062;49.678;24.560;2023-03-11T00:16:01;95885.03;;;9.51;61.21
45327;BME280;31062;49.678;24.560;2023-03-11T00:18:49;95874.50;;;9.63;61.32
45327;BME280;31062;49.678;24.560;2023-03-11T00:21:35;95874.34;;;9.59;61.37
45327;BME280;31062;49.678;24.560;2023-03-11T00:24:21;95885.75;;;9.51;61.47
45327;BME280;31062;49.678;24.560;2023-03-11T00:27:07;95841.88;;;9.43;62.06
45327;BME280;31062;49.678;24.560;2023-03-11T00:29:52;95858.81;;;9.52;62.22
45327;BME280;31062;49.678;24.560;2023-03-11T00:32:38;95855.84;;;9.48;62.32
45327;BME280;31062;49.678;24.560;2023-03-11T00:35:27;95848.91;;;9.47;62.90
45327;BME280;31062;49.678;24.560;2023-03-11T00:38:15;95775.53;;;8.96;62.24
45327;BME280;31062;49.678;24.560;2023-03-11T00:41:02;95859.53;;;9.36;62.70
45327;BME280;31062;49.678;24.560;2023-03-11T00:43:48;95812.09;;;9.26;62.91
45327;BME280;31062;49.678;24.560;2023-03-11T00:46:34;95829.91;;;9.39;62.43
45327;BME280;31062;49.678;24.560;2023-03-11T00:49:19;95828.66;;;9.42;61.77
45327;BME280;31062;49.678;24.560;2023-03-11T00:52:05;95825.19;;;9.26;62.21
45327;BME280;31062;49.678;24.560;2023-03-11T00:54:50;95791.03;;;9.19;62.08
45327;BME280;31062;49.678;24.560;2023-03-11T00:57:37;95844.78;;;9.48;61.96
45327;BME280;31062;49.678;24.560;2023-03-11T01:00:26;95790.13;;;9.30;62.17
45327;BME280;31062;49.678;24.560;2023-03-11T01:03:12;95811.53;;;9.46;62.13
45327;BME280;31062;49.678;24.560;2023-03-11T01:05:58;95612.31;;;8.12;61.38
45327;BME280;31062;49.678;24.560;2023-03-11T01:08:44;95817.59;;;9.58;61.70
45327;BME280;31062;49.678;24.560;2023-03-11T01:11:29;95808.22;;;9.49;61.73
45327;BME280;31062;49.678;24.560;2023-03-11T01:14:15;95770.09;;;9.14;62.09
45327;BME280;31062;49.678;24.560;2023-03-11T01:17:01;95769.28;;;9.27;62.08
45327;BME280;31062;49.678;24.560;2023-03-11T01:19:48;95633.69;;;8.27;61.78
45327;BME280;31062;49.678;24.560;2023-03-11T01:22:33;95621.75;;;8.23;61.73
45327;BME280;31062;49.678;24.560;2023-03-11T01:25:21;95778.19;;;9.26;61.84
45327;BME280;31062;49.678;24.560;2023-03-11T01:28:09;95658.00;;;8.46;61.95
45327;BME280;31062;49.678;24.560;2023-03-11T01:30:54;95779.44;;;9.38;61.58
45327;BME280;31062;49.678;24.560;2023-03-11T01:33:40;95636.91;;;8.37;61.67
45327;BME280;31062;49.678;24.560;2023-03-11T01:36:25;95596.13;;;8.20;61.29
45327;BME280;31062;49.678;24.560;2023-03-11T01:39:11;95623.53;;;8.47;61.42
45327;BME280;31062;49.678;24.560;2023-03-11T01:41:56;95763.72;;;9.43;61.02
45327;BME280;31062;49.678;24.560;2023-03-11T01:44:42;95727.56;;;9.21;61.37
45327;BME280;31062;49.678;24.560;2023-03-11T01:47:35;95769.81;;;9.39;61.50
45327;BME280;31062;49.678;24.560;2023-03-11T01:50:24;95745.16;;;9.46;61.47
45327;BME280;31062;49.678;24.560;2023-03-11T01:53:12;95724.50;;;9.31;61.87
45327;BME280;31062;49.678;24.560;2023-03-11T01:56:02;95754.81;;;9.45;62.09
45327;BME280;31062;49.678;24.560;2023-03-11T01:58:50;95727.00;;;9.40;61.83
45327;BME280;31062;49.678;24.560;2023-03-11T02:01:42;95728.63;;;9.14;62.12
45327;BME280;31062;49.678;24.560;2023-03-11T02:04:33;95576.53;;;8.14;61.75
45327;BME280;31062;49.678;24.560;2023-03-11T02:07:19;95596.38;;;8.26;61.84
45327;BME280;31062;49.678;24.560;2023-03-11T02:10:10;95725.97;;;9.16;61.78
45327;BME280;31062;49.678;24.560;2023-03-11T02:12:56;95707.59;;;9.07;62.26
45327;BME280;31062;49.678;24.560;2023-03-11T02:15:45;95706.38;;;9.10;61.91
45327;BME280;31062;49.678;24.560;2023-03-11T02:18:32;95714.00;;;9.12;61.85
45327;BME280;31062;49.678;24.560;2023-03-11T02:21:27;95692.28;;;9.04;61.53
45327;BME280;31062;49.678;24.560;2023-03-11T02:24:27;95690.50;;;9.11;61.21
45327;BME280;31062;49.678;24.560;2023-03-11T02:27:17;95681.56;;;9.12;61.35
45327;BME280;31062;49.678;24.560;2023-03-11T02:30:06;95664.56;;;9.02;61.36
45327;BME280;31062;49.678;24.560;2023-03-11T02:32:55;95684.50;;;9.16;61.22
45327;BME280;31062;49.678;24.560;2023-03-11T02:35:42;95692.88;;;9.18;61.16
45327;BME280;31062;49.678;24.560;2023-03-11T02:38:28;95714.91;;;9.16;61.23
45327;BME280;31062;49.678;24.560;2023-03-11T02:41:18;95687.91;;;9.15;61.38
45327;BME280;31062;49.678;24.560;2023-03-11T02:44:09;95668.84;;;9.05;61.51
45327;BME280;31062;49.678;24.560;2023-03-11T02:46:56;95670.69;;;9.00;61.44
45327;BME280;31062;49.678;24.560;2023-03-11T02:49:43;95505.69;;;7.71;61.39
45327;BME280;31062;49.678;24.560;2023-03-11T02:52:31;95669.41;;;8.86;61.77
45327;BME280;31062;49.678;24.560;2023-03-11T02:55:19;95632.44;;;8.62;61.87
45327;BME280;31062;49.678;24.560;2023-03-11T02:58:04;95624.78;;;8.60;62.08
45327;BME280;31062;49.678;24.560;2023-03-11T03:00:50;95645.44;;;8.75;61.73
45327;BME280;31062;49.678;24.560;2023-03-11T03:03:36;95642.94;;;8.81;61.52
45327;BME280;31062;49.678;24.560;2023-03-11T03:06:22;95632.06;;;8.85;61.92
45327;BME280;31062;49.678;24.560;2023-03-11T03:09:10;95621.22;;;8.73;61.57
45327;BME280;31062;49.678;24.560;2023-03-11T03:11:56;95527.41;;;7.95;62.46
45327;BME280;31062;49.678;24.560;2023-03-11T03:14:42;95627.81;;;8.66;62.49
45327;BME280;31062;49.678;24.560;2023-03-11T03:17:28;95487.38;;;7.62;62.19
45327;BME280;31062;49.678;24.560;2023-03-11T03:20:14;95608.56;;;8.52;62.26
45327;BME280;31062;49.678;24.560;2023-03-11T03:23:05;95613.22;;;8.64;62.36
45327;BME280;31062;49.678;24.560;2023-03-11T03:25:51;95649.00;;;8.77;62.61
45327;BME280;31062;49.678;24.560;2023-03-11T03:28:36;95631.00;;;8.76;62.42
45327;BME280;31062;49.678;24.560;2023-03-11T03:31:23;95609.34;;;8.71;63.01
45327;BME280;31062;49.678;24.560;2023-03-11T03:34:10;95580.97;;;8.52;62.85
45327;BME280;31062;49.678;24.560;2023-03-11T03:36:55;95588.28;;;8.62;62.49
45327;BME280;31062;49.678;24.560;2023-03-11T03:39:40;95626.03;;;8.73;62.51
45327;BME280;31062;49.678;24.560;2023-03-11T03:42:28;95595.28;;;8.65;62.47
45327;BME280;31062;49.678;24.560;2023-03-11T03:45:14;95579.56;;;8.51;62.71
45327;BME280;31062;49.678;24.560;2023-03-11T03:48:00;95461.41;;;7.67;62.48
45327;BME280;31062;49.678;24.560;2023-03-11T03:50:49;95587.59;;;8.45;62.90
45327;BME280;31062;49.678;24.560;2023-03-11T03:53:35;95590.94;;;8.59;63.03
45327;BME280;31062;49.678;24.560;2023-03-11T03:56:21;95600.75;;;8.63;63.49
45327;BME280;31062;49.678;24.560;2023-03-11T03:59:06;95541.13;;;8.40;63.01
45327;BME280;31062;49.678;24.560;2023-03-11T04:01:58;95584.25;;;8.65;63.27
45327;BME280;31062;49.678;24.560;2023-03-11T04:04:46;95558.34;;;8.56;63.06
45327;BME280;31062;49.678;24.560;2023-03-11T04:07:33;95395.41;;;7.40;63.42
45327;BME280;31062;49.678;24.560;2023-03-11T04:10:22;95540.56;;;8.43;63.20
45327;BME280;31062;49.678;24.560;2023-03-11T04:13:08;95545.00;;;8.50;63.64
45327;BME280;31062;49.678;24.560;2023-03-11T04:15:54;95556.38;;;8.58;63.48
45327;BME280;31062;49.678;24.560;2023-03-11T04:18:40;95516.69;;;8.34;63.49
45327;BME280;31062;49.678;24.560;2023-03-11T04:21:25;95536.47;;;8.44;64.00
45327;BME280;31062;49.678;24.560;2023-03-11T04:24:13;95557.56;;;8.38;64.11
45327;BME280;31062;49.678;24.560;2023-03-11T04:27:00;95443.06;;;7.74;63.90
45327;BME280;31062;49.678;24.560;2023-03-11T04:29:41;95528.44;;;8.35;63.97
45327;BME280;31062;49.678;24.560;2023-03-11T04:32:28;95404.31;;;7.54;63.88
45327;BME280;31062;49.678;24.560;2023-03-11T04:35:14;95417.28;;;7.52;64.25
45327;BME280;31062;49.678;24.560;2023-03-11T04:38:00;95532.28;;;8.43;64.06
45327;BME280;31062;49.678;24.560;2023-03-11T04:40:47;95530.59;;;8.36;64.51
45327;BME280;31062;49.678;24.560;2023-03-11T04:43:33;95513.16;;;8.16;64.74
45327;BME280;31062;49.678;24.560;2023-03-11T04:46:19;95527.38;;;8.26;64.76
45327;BME280;31062;49.678;24.560;2023-03-11T04:49:05;95390.63;;;7.25;65.25
45327;BME280;31062;49.678;24.560;2023-03-11T04:51:50;95331.41;;;6.94;65.31
45327;BME280;31062;49.678;24.560;2023-03-11T04:54:39;95507.53;;;8.14;65.00
45327;BME280;31062;49.678;24.560;2023-03-11T04:57:24;95513.50;;;8.24;65.76
45327;BME280;31062;49.678;24.560;2023-03-11T05:00:13;95512.25;;;8.27;66.28
45327;BME280;31062;49.678;24.560;2023-03-11T05:03:04;95415.16;;;7.66;66.59
45327;BME280;31062;49.678;24.560;2023-03-11T05:05:50;95385.97;;;7.45;66.67
45327;BME280;31062;49.678;24.560;2023-03-11T05:08:39;95334.09;;;7.08;66.85
45327;BME280;31062;49.678;24.560;2023-03-11T05:11:25;95337.81;;;7.15;66.61
45327;BME280;31062;49.678;24.560;2023-03-11T05:14:10;95303.72;;;6.90;67.05
45327;BME280;31062;49.678;24.560;2023-03-11T05:16:57;95441.25;;;7.80;67.08
45327;BME280;31062;49.678;24.560;2023-03-11T05:19:42;95488.22;;;8.14;67.71
45327;BME280;31062;49.678;24.560;2023-03-11T05:22:36;95500.84;;;8.35;67.95
45327;BME280;31062;49.678;24.560;2023-03-11T05:25:23;95467.22;;;8.07;68.03
45327;BME280;31062;49.678;24.560;2023-03-11T05:28:09;95375.16;;;7.49;68.37
45327;BME280;31062;49.678;24.560;2023-03-11T05:31:00;95493.22;;;8.33;68.20
45327;BME280;31062;49.678;24.560;2023-03-11T05:33:49;95463.84;;;8.08;68.47
45327;BME280;31062;49.678;24.560;2023-03-11T05:36:34;95366.63;;;7.43;68.92
45327;BME280;31062;49.678;24.560;2023-03-11T05:39:20;95498.81;;;8.35;69.54
45327;BME280;31062;49.678;24.560;2023-03-11T05:42:06;95468.09;;;8.11;69.42
45327;BME280;31062;49.678;24.560;2023-03-11T05:44:53;95452.41;;;7.98;69.96
45327;BME280;31062;49.678;24.560;2023-03-11T05:47:41;95502.63;;;8.28;70.29
45327;BME280;31062;49.678;24.560;2023-03-11T05:50:29;95495.50;;;8.23;70.10
45327;BME280;31062;49.678;24.560;2023-03-11T05:53:14;95513.59;;;8.26;70.63
45327;BME280;31062;49.678;24.560;2023-03-11T05:56:00;95518.94;;;8.22;71.43
45327;BME280;31062;49.678;24.560;2023-03-11T05:58:47;95552.31;;;8.28;71.09
45327;BME280;31062;49.678;24.560;2023-03-11T06:01:34;95507.44;;;8.12;71.43
45327;BME280;31062;49.678;24.560;2023-03-11T06:04:20;95363.75;;;7.10;71.42
45327;BME280;31062;49.678;24.560;2023-03-11T06:07:07;95507.44;;;8.12;72.10
45327;BME280;31062;49.678;24.560;2023-03-11T06:09:56;95370.19;;;7.14;72.02
45327;BME280;31062;49.678;24.560;2023-03-11T06:12:41;95368.66;;;7.11;72.15
45327;BME280;31062;49.678;24.560;2023-03-11T06:15:36;95519.09;;;8.26;72.61
45327;BME280;31062;49.678;24.560;2023-03-11T06:18:23;95554.97;;;8.26;71.89
45327;BME280;31062;49.678;24.560;2023-03-11T06:21:22;95542.97;;;8.19;72.03
45327;BME280;31062;49.678;24.560;2023-03-11T06:24:08;95379.06;;;7.13;72.41
45327;BME280;31062;49.678;24.560;2023-03-11T06:26:54;95541.28;;;8.28;71.97
45327;BME280;31062;49.678;24.560;2023-03-11T06:29:42;95370.53;;;7.07;72.34
45327;BME280;31062;49.678;24.560;2023-03-11T06:32:29;95398.94;;;7.27;72.52
45327;BME280;31062;49.678;24.560;2023-03-11T06:35:14;95524.00;;;8.12;72.80
45327;BME280;31062;49.678;24.560;2023-03-11T06:38:00;95570.28;;;8.29;72.54
45327;BME280;31062;49.678;24.560;2023-03-11T06:40:46;95533.16;;;8.16;72.77
45327;BME280;31062;49.678;24.560;2023-03-11T06:43:33;95415.84;;;7.35;72.65
45327;BME280;31062;49.678;24.560;2023-03-11T06:46:21;95517.44;;;7.88;73.34
45327;BME280;31062;49.678;24.560;2023-03-11T06:49:08;95448.59;;;7.58;73.54
45327;BME280;31062;49.678;24.560;2023-03-11T06:51:56;95481.56;;;7.88;73.54
45327;BME280;31062;49.678;24.560;2023-03-11T06:54:43;95520.28;;;8.05;73.88
45327;BME280;31062;49.678;24.560;2023-03-11T06:57:29;95383.69;;;7.24;73.95
45327;BME280;31062;49.678;24.560;2023-03-11T07:00:19;95517.41;;;8.19;74.67
45327;BME280;31062;49.678;24.560;2023-03-11T07:03:10;95521.88;;;8.10;74.89
45327;BME280;31062;49.678;24.560;2023-03-11T07:05:57;95508.34;;;8.01;74.44
45327;BME280;31062;49.678;24.560;2023-03-11T07:08:42;95521.34;;;8.14;74.54
45327;BME280;31062;49.678;24.560;2023-03-11T07:11:29;95547.00;;;8.32;74.98
45327;BME280;31062;49.678;24.560;2023-03-11T07:14:22;95539.50;;;8.35;74.50
45327;BME280;31062;49.678;24.560;2023-03-11T07:17:11;95545.72;;;8.35;75.07
45327;BME280;31062;49.678;24.560;2023-03-11T07:20:05;95523.09;;;8.23;74.83
45327;BME280;31062;49.678;24.560;2023-03-11T07:22:52;95563.00;;;8.51;75.16
45327;BME280;31062;49.678;24.560;2023-03-11T07:25:37;95543.06;;;8.37;75.19
45327;BME280;31062;49.678;24.560;2023-03-11T07:28:24;95563.63;;;8.50;75.65
45327;BME280;31062;49.678;24.560;2023-03-11T07:31:16;95530.25;;;8.28;76.52
45327;BME280;31062;49.678;24.560;2023-03-11T07:34:05;95419.31;;;7.51;77.35
45327;BME280;31062;49.678;24.560;2023-03-11T07:36:55;95396.72;;;7.39;78.03
45327;BME280;31062;49.678;24.560;2023-03-11T07:39:41;95398.09;;;7.38;79.61
45327;BME280;31062;49.678;24.560;2023-03-11T07:42:26;95584.09;;;8.60;80.03
45327;BME280;31062;49.678;24.560;2023-03-11T07:45:12;95554.78;;;8.53;80.84
45327;BME280;31062;49.678;24.560;2023-03-11T07:47:58;95587.19;;;8.69;80.69
45327;BME280;31062;49.678;24.560;2023-03-11T07:50:43;95587.25;;;8.71;81.25
45327;BME280;31062;49.678;24.560;2023-03-11T07:53:28;95527.94;;;8.38;80.63
45327;BME280;31062;49.678;24.560;2023-03-11T07:56:15;95564.72;;;8.76;81.19
45327;BME280;31062;49.678;24.560;2023-03-11T07:59:03;95594.47;;;8.78;80.63
45327;BME280;31062;49.678;24.560;2023-03-11T08:01:49;95555.63;;;8.74;81.02
45327;BME280;31062;49.678;24.560;2023-03-11T08:04:34;95568.28;;;8.79;81.13
45327;BME280;31062;49.678;24.560;2023-03-11T08:07:20;95505.84;;;8.38;80.94
45327;BME280;31062;49.678;24.560;2023-03-11T08:10:05;95431.84;;;7.86;80.77
45327;BME280;31062;49.678;24.560;2023-03-11T08:12:51;95422.06;;;7.83;80.96
45327;BME280;31062;49.678;24.560;2023-03-11T08:15:37;95569.84;;;8.84;80.90
45327;BME280;31062;49.678;24.560;2023-03-11T08:18:23;95563.72;;;8.85;81.06
45327;BME280;31062;49.678;24.560;2023-03-11T08:21:12;95534.28;;;8.58;81.24
45327;BME280;31062;49.678;24.560;2023-03-11T08:24:00;95569.31;;;8.87;80.67
45327;BME280;31062;49.678;24.560;2023-03-11T08:26:47;95564.50;;;8.88;80.37
45327;BME280;31062;49.678;24.560;2023-03-11T08:29:34;95402.16;;;7.68;81.01
45327;BME280;31062;49.678;24.560;2023-03-11T08:32:19;95410.88;;;7.78;81.02
45327;BME280;31062;49.678;24.560;2023-03-11T08:35:05;95585.50;;;8.95;81.40
45327;BME280;31062;49.678;24.560;2023-03-11T08:37:51;95537.78;;;8.77;81.30
45327;BME280;31062;49.678;24.560;2023-03-11T08:40:37;95539.88;;;8.94;81.15
45327;BME280;31062;49.678;24.560;2023-03-11T08:43:22;95558.06;;;8.99;80.59
45327;BME280;31062;49.678;24.560;2023-03-11T08:46:14;95509.03;;;8.48;80.63
45327;BME280;31062;49.678;24.560;2023-03-11T08:49:00;95573.38;;;9.02;80.82
45327;BME280;31062;49.678;24.560;2023-03-11T08:51:46;95504.41;;;8.37;80.92
45327;BME280;31062;49.678;24.560;2023-03-11T08:54:32;95569.97;;;9.04;80.94
45327;BME280;31062;49.678;24.560;2023-03-11T08:57:18;95529.84;;;8.85;80.81
45327;BME280;31062;49.678;24.560;2023-03-11T09:00:05;95561.22;;;9.09;80.48
45327;BME280;31062;49.678;24.560;2023-03-11T09:02:51;95554.88;;;8.89;80.26
45327;BME280;31062;49.678;24.560;2023-03-11T09:05:37;95568.47;;;9.18;79.57
45327;BME280;31062;49.678;24.560;2023-03-11T09:08:22;95574.00;;;9.18;79.56
45327;BME280;31062;49.678;24.560;2023-03-11T09:11:09;95571.19;;;9.16;78.71
45327;BME280;31062;49.678;24.560;2023-03-11T09:13:54;95536.97;;;8.90;79.03
45327;BME280;31062;49.678;24.560;2023-03-11T09:16:40;95566.59;;;9.05;79.91
45327;BME280;31062;49.678;24.560;2023-03-11T09:19:25;95566.91;;;9.13;79.75
45327;BME280;31062;49.678;24.560;2023-03-11T09:22:12;95583.09;;;9.21;79.74
45327;BME280;31062;49.678;24.560;2023-03-11T09:24:57;95567.72;;;9.16;79.70
45327;BME280;31062;49.678;24.560;2023-03-11T09:27:43;95580.25;;;9.19;79.89
45327;BME280;31062;49.678;24.560;2023-03-11T09:30:28;95577.97;;;9.13;79.99
45327;BME280;31062;49.678;24.560;2023-03-11T09:33:14;95585.00;;;9.16;80.21
45327;BME280;31062;49.678;24.560;2023-03-11T09:36:00;95570.69;;;9.04;80.14
45327;BME280;31062;49.678;24.560;2023-03-11T09:38:46;95424.34;;;8.04;79.80
45327;BME280;31062;49.678;24.560;2023-03-11T09:41:54;95590.44;;;9.14;80.19
45327;BME280;31062;49.678;24.560;2023-03-11T09:45:37;95485.19;;;8.39;80.01
45327;BME280;31062;49.678;24.560;2023-03-11T09:48:51;95597.94;;;9.12;80.40
45327;BME280;31062;49.678;24.560;2023-03-11T09:51:23;95571.53;;;8.91;79.48
45327;BME280;31062;49.678;24.560;2023-03-11T09:54:12;95417.34;;;7.85;79.67
45327;BME280;31062;49.678;24.560;2023-03-11T09:56:59;95443.22;;;8.09;79.76
45327;BME280;31062;49.678;24.560;2023-03-11T09:59:47;95571.06;;;8.96;79.74
45327;BME280;31062;49.678;24.560;2023-03-11T10:02:35;95524.50;;;8.55;79.35
45327;BME280;31062;49.678;24.560;2023-03-11T10:05:26;95592.81;;;9.04;79.02
45327;BME280;31062;49.678;24.560;2023-03-11T10:14:35;95625.63;;;8.96;79.60
45327;BME280;31062;49.678;24.560;2023-03-11T10:20:41;95620.75;;;8.79;76.64
45327;BME280;31062;49.678;24.560;2023-03-11T10:23:39;95639.56;;;8.67;75.56
45327;BME280;31062;49.678;24.560;2023-03-11T10:26:35;95605.56;;;8.46;76.62
45327;BME280;31062;49.678;24.560;2023-03-11T10:29:27;95615.72;;;8.42;76.03
45327;BME280;31062;49.678;24.560;2023-03-11T10:32:24;95604.97;;;8.32;75.66
45327;BME280;31062;49.678;24.560;2023-03-11T10:38:12;95501.56;;;7.41;76.66
45327;BME280;31062;49.678;24.560;2023-03-11T10:41:03;95578.03;;;7.86;77.25
45327;BME280;31062;49.678;24.560;2023-03-11T10:44:04;95610.81;;;8.09;77.25
45327;BME280;31062;49.678;24.560;2023-03-11T10:46:50;95552.13;;;7.61;77.19
45327;BME280;31062;49.678;24.560;2023-03-11T10:49:36;95577.94;;;7.84;78.04
45327;BME280;31062;49.678;24.560;2023-03-11T10:52:21;95481.25;;;7.19;77.79
45327;BME280;31062;49.678;24.560;2023-03-11T10:55:07;95572.41;;;7.84;78.36
45327;BME280;31062;49.678;24.560;2023-03-11T10:58:03;95614.09;;;8.21;78.80
45327;BME280;31062;49.678;24.560;2023-03-11T11:01:04;95594.84;;;7.92;78.54
45327;BME280;31062;49.678;24.560;2023-03-11T11:03:54;95596.22;;;8.22;78.60
45327;BME280;31062;49.678;24.560;2023-03-11T11:06:40;95506.41;;;7.56;77.91
45327;BME280;31062;49.678;24.560;2023-03-11T11:09:25;95606.16;;;8.29;77.89
45327;BME280;31062;49.678;24.560;2023-03-11T11:12:15;95543.56;;;7.71;77.96
45327;BME280;31062;49.678;24.560;2023-03-11T11:15:05;95509.44;;;7.62;77.45
45327;BME280;31062;49.678;24.560;2023-03-11T11:17:54;95551.41;;;7.76;76.87
45327;BME280;31062;49.678;24.560;2023-03-11T11:20:53;95573.84;;;7.85;75.95
45327;BME280;31062;49.678;24.560;2023-03-11T11:23:43;95612.84;;;8.24;75.53
45327;BME280;31062;49.678;24.560;2023-03-11T11:26:31;95567.06;;;7.88;75.09
45327;BME280;31062;49.678;24.560;2023-03-11T11:29:17;95621.56;;;8.18;75.79
45327;BME280;31062;49.678;24.560;2023-03-11T11:38:00;95446.22;;;7.06;75.38
45327;BME280;31062;49.678;24.560;2023-03-11T11:40:49;95630.72;;;8.23;75.01
45327;BME280;31062;49.678;24.560;2023-03-11T11:46:43;95645.78;;;8.20;74.68
45327;BME280;31062;49.678;24.560;2023-03-11T11:49:33;95475.38;;;7.11;74.96
45327;BME280;31062;49.678;24.560;2023-03-11T11:52:26;95421.44;;;6.76;75.25
45327;BME280;31062;49.678;24.560;2023-03-11T11:55:22;95624.22;;;8.01;76.32
45327;BME280;31062;49.678;24.560;2023-03-11T11:58:10;95625.47;;;7.98;76.98
45327;BME280;31062;49.678;24.560;2023-03-11T12:04:37;95624.28;;;7.87;77.36
45327;BME280;31062;49.678;24.560;2023-03-11T12:10:42;95442.75;;;6.76;77.79
45327;BME280;31062;49.678;24.560;2023-03-11T12:17:00;95618.81;;;8.03;76.89
45327;BME280;31062;49.678;24.560;2023-03-11T12:19:55;95613.72;;;8.13;76.79
45327;BME280;31062;49.678;24.560;2023-03-11T12:23:04;95648.28;;;8.14;76.25
45327;BME280;31062;49.678;24.560;2023-03-11T12:26:16;95473.16;;;7.07;75.69
45327;BME280;31062;49.678;24.560;2023-03-11T12:29:11;95477.78;;;7.03;75.42
45327;BME280;31062;49.678;24.560;2023-03-11T12:32:02;95554.38;;;7.51;75.46
45327;BME280;31062;49.678;24.560;2023-03-11T12:34:48;95602.38;;;7.75;74.90
45327;BME280;31062;49.678;24.560;2023-03-11T12:37:34;95626.59;;;7.93;75.41
45327;BME280;31062;49.678;24.560;2023-03-11T12:46:19;95669.41;;;7.94;74.78
45327;BME280;31062;49.678;24.560;2023-03-11T12:49:12;95644.41;;;7.90;74.67
45327;BME280;31062;49.678;24.560;2023-03-11T13:03:35;95543.78;;;7.01;76.05
45327;BME280;31062;49.678;24.560;2023-03-11T13:06:34;95678.94;;;7.91;76.61
45327;BME280;31062;49.678;24.560;2023-03-11T13:09:24;95548.88;;;6.92;76.31
45327;BME280;31062;49.678;24.560;2023-03-11T13:13:12;95694.34;;;7.96;75.92
45327;BME280;31062;49.678;24.560;2023-03-11T13:15:37;95511.44;;;6.58;75.67
45327;BME280;31062;49.678;24.560;2023-03-11T13:18:27;95581.84;;;6.90;75.10
45327;BME280;31062;49.678;24.560;2023-03-11T13:27:17;95567.50;;;6.24;73.71
45327;BME280;31062;49.678;24.560;2023-03-11T13:30:31;95736.47;;;7.12;73.00
45327;BME280;31062;49.678;24.560;2023-03-11T13:33:25;95658.63;;;6.30;73.51
45327;BME280;31062;49.678;24.560;2023-03-11T13:36:23;95631.81;;;5.91;73.02
45327;BME280;31062;49.678;24.560;2023-03-11T13:39:23;95776.84;;;6.67;74.41
45327;BME280;31062;49.678;24.560;2023-03-11T13:45:21;95767.09;;;6.52;75.00
45327;BME280;31062;49.678;24.560;2023-03-11T13:48:15;95751.94;;;6.26;74.81
45327;BME280;31062;49.678;24.560;2023-03-11T13:51:12;95795.63;;;6.45;75.14
45327;BME280;31062;49.678;24.560;2023-03-11T13:56:57;95820.47;;;5.96;75.29
45327;BME280;31062;49.678;24.560;2023-03-11T13:59:43;95828.31;;;6.13;75.22
45327;BME280;31062;49.678;24.560;2023-03-11T14:02:28;95836.69;;;6.04;75.44
45327;BME280;31062;49.678;24.560;2023-03-11T14:05:25;95826.69;;;5.85;75.65
45327;BME280;31062;49.678;24.560;2023-03-11T14:08:24;95840.59;;;5.87;75.88
45327;BME280;31062;49.678;24.560;2023-03-11T14:11:16;95666.38;;;4.48;75.80
45327;BME280;31062;49.678;24.560;2023-03-11T14:17:22;95882.66;;;5.55;75.53
45327;BME280;31062;49.678;24.560;2023-03-11T14:20:19;95803.63;;;5.18;75.73
45327;BME280;31062;49.678;24.560;2023-03-11T14:23:16;95857.56;;;5.49;75.27
45327;BME280;31062;49.678;24.560;2023-03-11T14:26:10;95877.53;;;5.49;75.92
45327;BME280;31062;49.678;24.560;2023-03-11T14:28:59;95857.00;;;5.39;76.60
45327;BME280;31062;49.678;24.560;2023-03-11T14:31:46;95878.38;;;5.52;75.94
45327;BME280;31062;49.678;24.560;2023-03-11T14:34:38;95865.94;;;5.27;76.00
45327;BME280;31062;49.678;24.560;2023-03-11T14:37:37;95844.69;;;5.28;75.94
45327;BME280;31062;49.678;24.560;2023-03-11T14:40:34;95900.59;;;5.56;76.12
45327;BME280;31062;49.678;24.560;2023-03-11T14:43:33;95877.41;;;5.59;76.08
45327;BME280;31062;49.678;24.560;2023-03-11T14:46:25;95879.81;;;5.53;75.91
45327;BME280;31062;49.678;24.560;2023-03-11T14:49:18;95892.47;;;5.58;75.48
45327;BME280;31062;49.678;24.560;2023-03-11T14:52:12;95878.97;;;5.39;75.32
45327;BME280;31062;49.678;24.560;2023-03-11T14:55:02;95900.34;;;5.52;75.65
45327;BME280;31062;49.678;24.560;2023-03-11T14:58:02;95787.94;;;4.63;75.69
45327;BME280;31062;49.678;24.560;2023-03-11T15:06:48;95859.09;;;4.82;75.11
45327;BME280;31062;49.678;24.560;2023-03-11T15:09:38;95947.41;;;5.34;75.42
45327;BME280;31062;49.678;24.560;2023-03-11T15:12:36;95941.66;;;5.30;76.00
45327;BME280;31062;49.678;24.560;2023-03-11T15:15:28;95761.38;;;3.88;74.72
45327;BME280;31062;49.678;24.560;2023-03-11T15:18:21;95993.00;;;5.16;74.68
45327;BME280;31062;49.678;24.560;2023-03-11T15:21:18;95770.94;;;3.87;74.16
45327;BME280;31062;49.678;24.560;2023-03-11T15:24:05;95919.84;;;4.76;74.00
45327;BME280;31062;49.678;24.560;2023-03-11T15:29:38;95956.34;;;4.79;73.81
45327;BME280;31062;49.678;24.560;2023-03-11T15:32:36;95957.09;;;4.91;73.23
45327;BME280;31062;49.678;24.560;2023-03-11T15:35:28;95894.84;;;4.28;73.77
45327;BME280;31062;49.678;24.560;2023-03-11T15:38:23;95985.59;;;4.74;73.72
45327;BME280;31062;49.678;24.560;2023-03-11T15:41:10;95982.78;;;4.63;74.30
45327;BME280;31062;49.678;24.560;2023-03-11T15:43:57;95972.34;;;4.49;74.66
45327;BME280;31062;49.678;24.560;2023-03-11T15:46:46;96000.22;;;4.67;74.47
45327;BME280;31062;49.678;24.560;2023-03-11T15:49:32;95961.16;;;4.36;74.61
45327;BME280;31062;49.678;24.560;2023-03-11T15:52:18;96002.72;;;4.63;73.99
45327;BME280;31062;49.678;24.560;2023-03-11T15:55:05;95822.19;;;3.32;73.82
45327;BME280;31062;49.678;24.560;2023-03-11T15:58:04;95819.97;;;3.19;73.42
45327;BME280;31062;49.678;24.560;2023-03-11T16:00:53;96017.53;;;4.48;72.86
45327;BME280;31062;49.678;24.560;2023-03-11T16:03:43;95962.53;;;4.04;72.71
45327;BME280;31062;49.678;24.560;2023-03-11T16:06:28;96002.88;;;4.13;73.02
45327;BME280;31062;49.678;24.560;2023-03-11T16:09:14;96022.88;;;4.25;73.46